sensor_id;sensor_type;location;lat;lon;timestamp;pressure;altitude;pressure_sealevel;temperature;humidity
26563;BME280;14217;50.986;5.826;2023-08-24T06:44:05;100796.84;;;28.86;43.26
26563;BME280;14217;50.986;5.826;2023-08-24T06:49:07;100803.50;;;28.92;43.25
26563;BME280;14217;50.986;5.826;2023-08-24T06:54:09;100803.81;;;28.98;43.24
26563;BME280;14217;50.986;5.826;2023-08-24T06:59:11;100816.31;;;28.99;43.41
26563;BME280;14217;50.986;5.826;2023-08-24T07:04:14;100815.47;;;28.99;43.36
26563;BME280;14217;50.986;5.826;2023-08-24T07:09:17;100799.13;;;29.01;43.43
26563;BME280;14217;50.986;5.826;2023-08-24T07:14:20;100797.16;;;29.03;43.55
26563;BME280;14217;50.986;5.826;2023-08-24T07:19:22;100792.47;;;28.95;44.18
26563;BME280;14217;50.986;5.826;2023-08-24T07:24:24;100785.50;;;29.02;44.59
26563;BME280;14217;50.986;5.826;2023-08-24T07:29:46;100786.34;;;29.03;46.03
26563;BME280;14217;50.986;5.826;2023-08-24T07:34:48;100797.69;;;28.87;47.32
26563;BME280;14217;50.986;5.826;2023-08-24T07:39:50;100796.19;;;28.63;48.56
26563;BME280;14217;50.986;5.826;2023-08-24T07:44:52;100800.94;;;28.81;48.13
26563;BME280;14217;50.986;5.826;2023-08-24T07:49:54;100797.94;;;28.74;48.10
26563;BME280;14217;50.986;5.826;2023-08-24T07:54:56;100791.19;;;28.58;49.24
26563;BME280;14217;50.986;5.826;2023-08-24T08:00:01;100786.28;;;28.43;50.44
26563;BME280;14217;50.986;5.826;2023-08-24T08:05:08;100779.59;;;28.68;49.14
26563;BME280;14217;50.986;5.826;2023-08-24T08:10:14;100783.06;;;28.89;48.91
26563;BME280;14217;50.986;5.826;2023-08-24T08:15:19;100780.38;;;28.89;48.30
26563;BME280;14217;50.986;5.826;2023-08-24T08:20:21;100777.72;;;28.99;47.47
26563;BME280;14217;50.986;5.826;2023-08-24T08:25:23;100779.53;;;28.98;47.32
26563;BME280;14217;50.986;5.826;2023-08-24T08:30:25;100766.19;;;29.07;47.57
26563;BME280;14217;50.986;5.826;2023-08-24T08:35:27;100757.81;;;29.00;47.91
26563;BME280;14217;50.986;5.826;2023-08-24T08:40:30;100752.56;;;28.98;47.34
26563;BME280;14217;50.986;5.826;2023-08-24T08:45:32;100741.63;;;29.00;47.37
26563;BME280;14217;50.986;5.826;2023-08-24T08:50:34;100721.75;;;28.91;47.36
26563;BME280;14217;50.986;5.826;2023-08-24T08:55:37;100717.34;;;29.00;47.71
26563;BME280;14217;50.986;5.826;2023-08-24T09:00:39;100712.25;;;28.97;48.29
26563;BME280;14217;50.986;5.826;2023-08-24T09:05:42;100700.91;;;29.03;47.56
26563;BME280;14217;50.986;5.826;2023-08-24T09:10:44;100681.72;;;28.87;46.48
26563;BME280;14217;50.986;5.826;2023-08-24T09:15:46;100675.06;;;28.91;46.63
26563;BME280;14217;50.986;5.826;2023-08-24T09:20:48;100672.25;;;29.12;46.60
26563;BME280;14217;50.986;5.826;2023-08-24T09:25:50;100684.16;;;28.99;46.85
26563;BME280;14217;50.986;5.826;2023-08-24T09:30:53;100711.81;;;28.92;46.56
26563;BME280;14217;50.986;5.826;2023-08-24T09:35:58;100737.97;;;29.01;46.79
26563;BME280;14217;50.986;5.826;2023-08-24T09:41:05;100715.66;;;29.09;47.37
26563;BME280;14217;50.986;5.826;2023-08-24T09:46:07;100725.22;;;29.13;47.13
26563;BME280;14217;50.986;5.826;2023-08-24T09:51:09;100718.91;;;29.03;48.35
26563;BME280;14217;50.986;5.826;2023-08-24T09:56:14;100717.25;;;29.21;47.72
26563;BME280;14217;50.986;5.826;2023-08-24T10:01:18;100733.41;;;29.02;48.26
26563;BME280;14217;50.986;5.826;2023-08-24T10:06:21;100727.53;;;28.67;50.08
26563;BME280;14217;50.986;5.826;2023-08-24T10:11:28;100733.81;;;28.87;49.07
26563;BME280;14217;50.986;5.826;2023-08-24T10:16:34;100733.53;;;29.00;48.54
26563;BME280;14217;50.986;5.826;2023-08-24T10:21:37;100729.56;;;28.94;48.68
26563;BME280;14217;50.986;5.826;2023-08-24T10:26:39;100737.72;;;29.14;47.82
26563;BME280;14217;50.986;5.826;2023-08-24T10:31:42;100752.91;;;29.15;47.60
26563;BME280;14217;50.986;5.826;2023-08-24T10:36:47;100775.63;;;29.12;47.98
26563;BME280;14217;50.986;5.826;2023-08-24T10:41:51;100834.66;;;29.06;47.94
26563;BME280;14217;50.986;5.826;2023-08-24T10:57:25;100864.59;;;29.03;48.10
26563;BME280;14217;50.986;5.826;2023-08-24T11:02:29;100866.44;;;29.02;47.89
26563;BME280;14217;50.986;5.826;2023-08-24T11:07:31;100860.78;;;29.05;47.73
26563;BME280;14217;50.986;5.826;2023-08-24T11:18:26;100842.88;;;29.04;47.27
26563;BME280;14217;50.986;5.826;2023-08-24T11:23:28;100852.53;;;29.07;47.17
26563;BME280;14217;50.986;5.826;2023-08-24T11:28:30;100830.94;;;29.07;47.12
26563;BME280;14217;50.986;5.826;2023-08-24T11:33:34;100815.06;;;29.04;47.53
26563;BME280;14217;50.986;5.826;2023-08-24T11:38:40;100814.75;;;29.07;47.49
26563;BME280;14217;50.986;5.826;2023-08-24T11:43:43;100784.13;;;29.08;48.01
26563;BME280;14217;50.986;5.826;2023-08-24T11:48:46;100749.88;;;29.08;48.03
26563;BME280;14217;50.986;5.826;2023-08-24T11:53:48;100709.97;;;29.02;48.85
26563;BME280;14217;50.986;5.826;2023-08-24T11:58:50;100671.38;;;29.02;48.85
26563;BME280;14217;50.986;5.826;2023-08-24T12:03:53;100641.69;;;29.02;48.80
26563;BME280;14217;50.986;5.826;2023-08-24T12:08:55;100636.44;;;29.00;49.19
26563;BME280;14217;50.986;5.826;2023-08-24T12:13:58;100627.38;;;29.01;49.23
26563;BME280;14217;50.986;5.826;2023-08-24T12:19:00;100595.41;;;28.96;49.19
26563;BME280;14217;50.986;5.826;2023-08-24T12:24:05;100613.72;;;29.03;49.04
26563;BME280;14217;50.986;5.826;2023-08-24T12:29:09;100613.72;;;29.03;49.16
26563;BME280;14217;50.986;5.826;2023-08-24T12:34:14;100605.78;;;29.01;49.54
26563;BME280;14217;50.986;5.826;2023-08-24T12:39:16;100624.38;;;29.04;49.33
26563;BME280;14217;50.986;5.826;2023-08-24T12:44:18;100642.84;;;28.99;49.89
26563;BME280;14217;50.986;5.826;2023-08-24T12:49:20;100657.44;;;28.96;51.32
26563;BME280;14217;50.986;5.826;2023-08-24T12:54:22;100672.50;;;28.99;50.79
26563;BME280;14217;50.986;5.826;2023-08-24T12:59:26;100694.94;;;28.99;51.79
26563;BME280;14217;50.986;5.826;2023-08-24T13:04:28;100710.69;;;29.04;51.79
26563;BME280;14217;50.986;5.826;2023-08-24T13:09:32;100688.41;;;29.02;50.54
26563;BME280;14217;50.986;5.826;2023-08-24T13:14:34;100718.63;;;28.96;52.04
26563;BME280;14217;50.986;5.826;2023-08-24T13:19:37;100699.47;;;29.09;51.43
26563;BME280;14217;50.986;5.826;2023-08-24T13:24:39;100695.22;;;29.06;51.25
26563;BME280;14217;50.986;5.826;2023-08-24T13:29:41;100700.63;;;29.06;51.45
26563;BME280;14217;50.986;5.826;2023-08-24T13:34:44;100691.22;;;29.01;51.36
26563;BME280;14217;50.986;5.826;2023-08-24T13:39:45;100691.22;;;29.01;51.09
26563;BME280;14217;50.986;5.826;2023-08-24T13:44:47;100685.41;;;28.95;51.10
26563;BME280;14217;50.986;5.826;2023-08-24T13:49:49;100689.53;;;28.99;51.06
26563;BME280;14217;50.986;5.826;2023-08-24T13:54:52;100686.72;;;29.01;50.66
26563;BME280;14217;50.986;5.826;2023-08-24T14:00:12;100686.56;;;28.93;50.57
26563;BME280;14217;50.986;5.826;2023-08-24T14:05:14;100678.72;;;28.90;50.66
26563;BME280;14217;50.986;5.826;2023-08-24T14:10:16;100677.03;;;28.89;50.81
26563;BME280;14217;50.986;5.826;2023-08-24T14:15:18;100670.38;;;28.93;50.46
26563;BME280;14217;50.986;5.826;2023-08-24T14:20:20;100663.13;;;28.93;50.38
26563;BME280;14217;50.986;5.826;2023-08-24T14:25:22;100655.31;;;28.90;49.89
26563;BME280;14217;50.986;5.826;2023-08-24T14:30:25;100640.13;;;28.89;50.17
26563;BME280;14217;50.986;5.826;2023-08-24T14:35:27;100633.72;;;28.90;50.34
26563;BME280;14217;50.986;5.826;2023-08-24T14:40:32;100626.19;;;28.65;44.21
26563;BME280;14217;50.986;5.826;2023-08-24T14:45:34;100607.06;;;28.87;42.89
26563;BME280;14217;50.986;5.826;2023-08-24T14:50:38;100600.25;;;28.83;45.83
26563;BME280;14217;50.986;5.826;2023-08-24T14:55:41;100576.56;;;28.87;44.75
26563;BME280;14217;50.986;5.826;2023-08-24T15:00:43;100567.88;;;28.73;41.12
26563;BME280;14217;50.986;5.826;2023-08-24T15:06:04;100567.16;;;28.71;41.55
26563;BME280;14217;50.986;5.826;2023-08-24T15:11:06;100555.41;;;28.82;41.80
26563;BME280;14217;50.986;5.826;2023-08-24T15:16:09;100553.00;;;28.79;41.11
26563;BME280;14217;50.986;5.826;2023-08-24T15:21:12;100548.75;;;28.76;43.42
26563;BME280;14217;50.986;5.826;2023-08-24T15:26:17;100544.03;;;28.88;46.38
26563;BME280;14217;50.986;5.826;2023-08-24T15:31:18;100531.84;;;28.84;47.61
26563;BME280;14217;50.986;5.826;2023-08-24T15:36:20;100524.03;;;28.71;48.92
26563;BME280;14217;50.986;5.826;2023-08-24T15:41:22;100516.53;;;28.75;48.76
26563;BME280;14217;50.986;5.826;2023-08-24T15:46:24;100487.69;;;28.85;48.25
26563;BME280;14217;50.986;5.826;2023-08-24T15:51:26;100484.16;;;28.75;45.78
26563;BME280;14217;50.986;5.826;2023-08-24T15:56:28;100474.94;;;28.87;47.28
26563;BME280;14217;50.986;5.826;2023-08-24T16:01:32;100462.59;;;28.85;47.88
26563;BME280;14217;50.986;5.826;2023-08-24T16:06:34;100439.31;;;28.84;48.12
26563;BME280;14217;50.986;5.826;2023-08-24T16:11:36;100421.00;;;28.87;47.84
26563;BME280;14217;50.986;5.826;2023-08-24T16:16:38;100404.69;;;28.89;48.21
26563;BME280;14217;50.986;5.826;2023-08-24T16:21:40;100377.28;;;28.84;48.43
26563;BME280;14217;50.986;5.826;2023-08-24T16:26:42;100343.81;;;28.86;48.49
26563;BME280;14217;50.986;5.826;2023-08-24T16:31:44;100335.53;;;28.88;48.37
26563;BME280;14217;50.986;5.826;2023-08-24T16:36:46;100338.09;;;28.89;48.46
26563;BME280;14217;50.986;5.826;2023-08-24T16:41:48;100326.63;;;28.87;48.33
26563;BME280;14217;50.986;5.826;2023-08-24T16:46:50;100333.88;;;28.87;48.02
26563;BME280;14217;50.986;5.826;2023-08-24T16:51:52;100332.97;;;28.96;47.73
26563;BME280;14217;50.986;5.826;2023-08-24T16:56:54;100324.63;;;28.89;47.78
26563;BME280;14217;50.986;5.826;2023-08-24T17:01:56;100336.09;;;28.91;47.85
26563;BME280;14217;50.986;5.826;2023-08-24T17:06:59;100349.28;;;28.94;47.76
26563;BME280;14217;50.986;5.826;2023-08-24T17:12:00;100352.75;;;28.87;47.86
26563;BME280;14217;50.986;5.826;2023-08-24T17:17:02;100348.75;;;28.91;47.72
26563;BME280;14217;50.986;5.826;2023-08-24T17:22:05;100354.66;;;28.94;48.63
26563;BME280;14217;50.986;5.826;2023-08-24T17:27:07;100329.00;;;28.90;49.68
26563;BME280;14217;50.986;5.826;2023-08-24T17:32:09;100348.56;;;28.92;50.22
26563;BME280;14217;50.986;5.826;2023-08-24T17:37:11;100367.47;;;28.92;50.46
26563;BME280;14217;50.986;5.826;2023-08-24T17:42:13;100388.50;;;28.89;50.23
26563;BME280;14217;50.986;5.826;2023-08-24T17:47:15;100391.19;;;28.89;50.37
26563;BME280;14217;50.986;5.826;2023-08-24T17:52:18;100402.09;;;28.97;50.67
26563;BME280;14217;50.986;5.826;2023-08-24T17:57:20;100406.50;;;28.88;50.74
26563;BME280;14217;50.986;5.826;2023-08-24T18:02:22;100395.72;;;28.88;50.61
26563;BME280;14217;50.986;5.826;2023-08-24T18:07:24;100394.03;;;28.87;50.40
26563;BME280;14217;50.986;5.826;2023-08-24T18:12:26;100392.03;;;28.89;50.23
26563;BME280;14217;50.986;5.826;2023-08-24T18:17:28;100396.28;;;28.92;50.06
26563;BME280;14217;50.986;5.826;2023-08-24T18:22:31;100398.84;;;28.93;49.80
26563;BME280;14217;50.986;5.826;2023-08-24T18:27:33;100410.22;;;28.87;49.80
26563;BME280;14217;50.986;5.826;2023-08-24T18:32:35;100411.63;;;28.91;49.95
26563;BME280;14217;50.986;5.826;2023-08-24T18:37:37;100402.69;;;28.91;49.76
26563;BME280;14217;50.986;5.826;2023-08-24T18:42:39;100394.88;;;28.88;49.66
26563;BME280;14217;50.986;5.826;2023-08-24T18:47:42;100401.81;;;28.90;49.73
26563;BME280;14217;50.986;5.826;2023-08-24T18:52:44;100391.78;;;28.83;50.02
26563;BME280;14217;50.986;5.826;2023-08-24T18:57:46;100390.06;;;28.82;49.66
26563;BME280;14217;50.986;5.826;2023-08-24T19:02:48;100385.09;;;28.87;49.05
26563;BME280;14217;50.986;5.826;2023-08-24T19:07:50;100397.28;;;28.91;48.96
26563;BME280;14217;50.986;5.826;2023-08-24T19:12:53;100407.38;;;28.89;48.83
26563;BME280;14217;50.986;5.826;2023-08-24T19:17:56;100408.22;;;28.89;48.68
26563;BME280;14217;50.986;5.826;2023-08-24T19:22:58;100417.00;;;28.91;48.81
26563;BME280;14217;50.986;5.826;2023-08-24T19:28:00;100422.41;;;28.91;48.80
26563;BME280;14217;50.986;5.826;2023-08-24T19:33:02;100420.69;;;28.90;48.42
26563;BME280;14217;50.986;5.826;2023-08-24T19:38:05;100406.22;;;28.91;48.53
26563;BME280;14217;50.986;5.826;2023-08-24T19:43:07;100404.69;;;28.89;48.62
26563;BME280;14217;50.986;5.826;2023-08-24T19:48:10;100410.06;;;28.89;48.38
26563;BME280;14217;50.986;5.826;2023-08-24T19:53:12;100390.31;;;28.88;48.21
26563;BME280;14217;50.986;5.826;2023-08-24T19:58:14;100392.03;;;28.89;48.06
26563;BME280;14217;50.986;5.826;2023-08-24T20:03:16;100391.19;;;28.89;48.63
26563;BME280;14217;50.986;5.826;2023-08-24T20:08:18;100370.22;;;28.83;49.01
26563;BME280;14217;50.986;5.826;2023-08-24T20:13:21;100364.94;;;28.81;48.40
26563;BME280;14217;50.986;5.826;2023-08-24T20:18:23;100354.03;;;28.83;48.02
26563;BME280;14217;50.986;5.826;2023-08-24T20:23:29;100366.66;;;28.82;47.75
26563;BME280;14217;50.986;5.826;2023-08-24T20:28:32;100378.28;;;28.83;48.44
26563;BME280;14217;50.986;5.826;2023-08-24T20:33:38;100383.69;;;28.83;49.03
26563;BME280;14217;50.986;5.826;2023-08-24T20:38:41;100383.69;;;28.83;48.91
26563;BME280;14217;50.986;5.826;2023-08-24T20:43:42;100401.84;;;28.81;49.44
26563;BME280;14217;50.986;5.826;2023-08-24T20:48:46;100403.84;;;28.78;49.33
26563;BME280;14217;50.986;5.826;2023-08-24T20:53:48;100420.16;;;28.77;49.54
26563;BME280;14217;50.986;5.826;2023-08-24T20:58:50;100440.19;;;28.74;49.29
26563;BME280;14217;50.986;5.826;2023-08-24T21:03:52;100436.78;;;28.72;48.95
26563;BME280;14217;50.986;5.826;2023-08-24T21:08:54;100453.66;;;28.74;48.51
26563;BME280;14217;50.986;5.826;2023-08-24T21:14:04;100468.69;;;28.77;48.24
26563;BME280;14217;50.986;5.826;2023-08-24T21:19:06;100480.19;;;28.79;48.02
26563;BME280;14217;50.986;5.826;2023-08-24T21:24:09;100487.56;;;28.77;47.67
26563;BME280;14217;50.986;5.826;2023-08-24T21:29:11;100473.50;;;28.73;47.59
26563;BME280;14217;50.986;5.826;2023-08-24T21:34:13;100474.09;;;28.77;47.57
26563;BME280;14217;50.986;5.826;2023-08-24T21:39:14;100482.75;;;28.71;47.56
26563;BME280;14217;50.986;5.826;2023-08-24T21:44:16;100477.50;;;28.79;47.27
26563;BME280;14217;50.986;5.826;2023-08-24T21:49:18;100484.88;;;28.77;47.11
26563;BME280;14217;50.986;5.826;2023-08-24T21:54:20;100478.63;;;28.76;46.95
26563;BME280;14217;50.986;5.826;2023-08-24T21:59:22;100466.13;;;28.75;47.06
26563;BME280;14217;50.986;5.826;2023-08-24T22:04:24;100470.09;;;28.81;46.96
26563;BME280;14217;50.986;5.826;2023-08-24T22:09:26;100454.06;;;28.79;46.64
26563;BME280;14217;50.986;5.826;2023-08-24T22:14:29;100426.97;;;28.81;46.68
26563;BME280;14217;50.986;5.826;2023-08-24T22:19:30;100415.34;;;28.81;46.49
26563;BME280;14217;50.986;5.826;2023-08-24T22:24:32;100414.50;;;28.80;46.64
26563;BME280;14217;50.986;5.826;2023-08-24T22:29:35;100394.03;;;28.77;46.45
26563;BME280;14217;50.986;5.826;2023-08-24T22:34:37;100381.44;;;28.78;46.36
26563;BME280;14217;50.986;5.826;2023-08-24T22:39:39;100397.31;;;28.81;46.43
26563;BME280;14217;50.986;5.826;2023-08-24T22:44:41;100385.69;;;28.81;46.28
26563;BME280;14217;50.986;5.826;2023-08-24T22:49:43;100379.28;;;28.82;46.21
26563;BME280;14217;50.986;5.826;2023-08-24T22:54:45;100386.25;;;28.84;46.16
26563;BME280;14217;50.986;5.826;2023-08-24T22:59:47;100380.28;;;28.81;46.17
26563;BME280;14217;50.986;5.826;2023-08-24T23:04:50;100379.44;;;28.80;46.12
26563;BME280;14217;50.986;5.826;2023-08-24T23:09:52;100382.84;;;28.82;46.00
26563;BME280;14217;50.986;5.826;2023-08-24T23:14:57;100386.94;;;28.86;46.08
26563;BME280;14217;50.986;5.826;2023-08-24T23:19:59;100385.22;;;28.85;46.15
26563;BME280;14217;50.986;5.826;2023-08-24T23:25:00;100361.09;;;28.84;45.93
26563;BME280;14217;50.986;5.826;2023-08-24T23:30:03;100351.47;;;28.81;45.91
26563;BME280;14217;50.986;5.826;2023-08-24T23:35:05;100348.91;;;28.79;45.91
26563;BME280;14217;50.986;5.826;2023-08-24T23:40:08;100347.09;;;28.80;46.15
26563;BME280;14217;50.986;5.826;2023-08-24T23:45:12;100346.91;;;28.82;46.09
26563;BME280;14217;50.986;5.826;2023-08-24T23:50:13;100341.69;;;28.80;45.96
26563;BME280;14217;50.986;5.826;2023-08-24T23:55:16;100344.94;;;28.84;45.80
